createdAt,value
2022-10-11T00:04:05.490Z,19.10
2022-10-11T00:09:28.770Z,19.73
2022-10-11T00:14:51.673Z,16.00
2022-10-11T00:20:14.480Z,21.27
2022-10-11T00:25:36.795Z,23.38
2022-10-11T00:31:00.551Z,20.00
2022-10-11T00:36:23.449Z,19.20
2022-10-11T00:41:47.726Z,20.30
2022-10-11T00:47:25.874Z,21.97
2022-10-11T00:52:58.865Z,18.70
2022-10-11T00:58:22.128Z,22.40
2022-10-11T01:03:47.501Z,23.42
2022-10-11T01:09:11.198Z,21.02
2022-10-11T01:14:49.925Z,24.57
2022-10-11T01:20:42.337Z,26.10
2022-10-11T01:26:32.311Z,20.92
2022-10-11T01:32:01.570Z,24.40
2022-10-11T01:37:33.949Z,25.37
2022-10-11T01:42:58.689Z,22.98
2022-10-11T01:48:28.882Z,24.77
2022-10-11T01:54:08.290Z,23.67
2022-10-11T02:00:04.768Z,25.35
2022-10-11T02:05:55.529Z,25.70
2022-10-11T02:11:41.813Z,29.30
2022-10-11T02:17:23.684Z,26.40
2022-10-11T02:22:49.777Z,24.70
2022-10-11T02:28:26.449Z,24.70
2022-10-11T02:34:14.500Z,23.20
2022-10-11T02:39:49.604Z,22.37
2022-10-11T02:45:26.099Z,21.40
2022-10-11T02:50:49.785Z,27.00
2022-10-11T02:56:13.804Z,20.53
2022-10-11T03:01:36.104Z,19.30
2022-10-11T03:06:58.273Z,22.37
2022-10-11T03:12:20.916Z,22.23
2022-10-11T03:17:43.063Z,19.27
2022-10-11T03:23:05.216Z,17.17
2022-10-11T03:28:27.415Z,16.97
2022-10-11T03:33:49.611Z,21.35
2022-10-11T03:39:12.508Z,17.27
2022-10-11T03:44:34.728Z,24.60
2022-10-11T03:49:56.909Z,23.43
2022-10-11T03:55:19.129Z,16.70
2022-10-11T04:00:42.220Z,21.27
2022-10-11T04:06:04.792Z,16.40
2022-10-11T04:11:27.656Z,19.87
2022-10-11T04:16:50.335Z,24.30
2022-10-11T04:22:12.508Z,19.87
2022-10-11T04:27:35.294Z,20.85
2022-10-11T04:32:57.681Z,18.40
2022-10-11T04:38:19.841Z,24.60
2022-10-11T04:43:42.046Z,20.40
2022-10-11T04:49:04.892Z,19.95
2022-10-11T04:54:27.046Z,21.47
2022-10-11T04:59:50.330Z,21.93
2022-10-11T05:05:15.390Z,26.47
2022-10-11T05:10:38.144Z,19.30
2022-10-11T05:16:00.405Z,16.10
2022-10-11T05:21:30.746Z,19.63
2022-10-11T05:26:53.081Z,14.45
2022-10-11T05:32:15.239Z,17.17
2022-10-11T05:37:38.484Z,22.33
2022-10-11T05:43:00.716Z,17.80
2022-10-11T05:48:24.656Z,18.60
2022-10-11T05:53:47.251Z,17.13
2022-10-11T05:59:10.623Z,18.37
2022-10-11T06:04:32.815Z,20.08
2022-10-11T06:09:55.605Z,15.43
2022-10-11T06:15:18.119Z,15.18
2022-10-11T06:20:40.248Z,14.70
2022-10-11T06:26:12.451Z,17.27
2022-10-11T06:31:34.571Z,12.45
2022-10-11T06:36:56.706Z,14.18
2022-10-11T06:42:19.490Z,14.77
2022-10-11T06:47:41.741Z,13.15
2022-10-11T06:53:05.623Z,13.68
2022-10-11T06:58:27.767Z,18.17
2022-10-11T07:03:50.191Z,13.00
2022-10-11T07:09:14.132Z,11.80
2022-10-11T07:14:36.722Z,13.68
2022-10-11T07:19:59.885Z,8.83
2022-10-11T07:25:22.226Z,10.38
2022-10-11T07:30:45.392Z,7.40
2022-10-11T07:36:11.150Z,11.15
2022-10-11T07:41:33.443Z,11.08
2022-10-11T07:46:55.568Z,9.93
2022-10-11T07:52:17.945Z,13.45
2022-10-11T07:57:40.591Z,14.30
2022-10-11T08:03:03.771Z,11.75
2022-10-11T08:08:25.904Z,14.90
2022-10-11T08:13:48.136Z,11.90
2022-10-11T08:19:11.259Z,12.17
2022-10-11T08:24:38.004Z,11.30
2022-10-11T08:29:57.258Z,13.45
2022-10-11T08:35:19.573Z,13.48
2022-10-11T08:40:43.317Z,13.67
2022-10-11T08:46:11.707Z,7.87
2022-10-11T08:51:42.203Z,32.95
2022-10-11T09:02:55.544Z,35.20
2022-10-11T09:08:23.078Z,26.73
2022-10-11T09:14:27.621Z,10.10
2022-10-11T09:20:03.454Z,11.60
2022-10-11T09:25:50.062Z,13.63
2022-10-11T09:31:14.428Z,12.85
2022-10-11T09:37:20.140Z,8.10
2022-10-11T09:42:42.356Z,10.80
2022-10-11T09:48:07.015Z,12.47
2022-10-11T09:53:30.979Z,14.93
2022-10-11T09:58:54.981Z,10.20
2022-10-11T10:04:26.887Z,12.90
2022-10-11T10:09:50.195Z,9.03
2022-10-11T10:15:23.663Z,12.20
2022-10-11T10:20:48.460Z,11.57
2022-10-11T10:26:28.194Z,9.57
2022-10-11T10:32:13.914Z,11.80
2022-10-11T10:37:33.909Z,11.08
2022-10-11T10:42:56.785Z,13.87
2022-10-11T10:49:28.682Z,13.83
2022-10-11T10:55:00.984Z,10.53
2022-10-11T11:00:39.508Z,9.60
2022-10-11T11:06:09.275Z,8.37
2022-10-11T11:11:42.626Z,7.70
2022-10-11T11:17:21.394Z,6.60
2022-10-11T11:23:14.745Z,10.30
2022-10-11T11:29:10.240Z,10.95
2022-10-11T11:34:45.824Z,6.03
2022-10-11T11:40:27.877Z,9.85
2022-10-11T11:46:01.623Z,10.28
2022-10-11T11:51:41.438Z,10.08
2022-10-11T11:57:33.795Z,8.60
2022-10-11T12:03:18.589Z,9.58
2022-10-11T12:08:43.929Z,18.98
2022-10-11T12:14:07.816Z,13.80
2022-10-11T12:19:33.126Z,6.00
2022-10-11T12:31:04.765Z,13.47
2022-10-11T12:36:47.771Z,7.20
2022-10-11T12:42:14.536Z,9.23
2022-10-11T12:48:02.116Z,7.20
2022-10-11T12:53:44.467Z,6.97
2022-10-11T12:59:09.407Z,7.53
2022-10-11T13:04:35.841Z,10.97
2022-10-11T13:09:59.370Z,7.43
2022-10-11T13:15:27.879Z,34.83
2022-10-11T13:20:51.697Z,8.37
2022-10-11T13:26:15.239Z,7.78
2022-10-11T13:31:37.753Z,10.63
2022-10-11T13:37:04.425Z,11.33
2022-10-11T13:42:34.079Z,10.47
2022-10-11T13:47:57.226Z,8.10
2022-10-11T13:53:24.357Z,7.72
2022-10-11T13:58:53.850Z,6.00
2022-10-11T14:04:26.132Z,5.23
2022-10-11T14:09:52.451Z,7.40
2022-10-11T14:15:32.287Z,7.70
2022-10-11T14:20:58.162Z,7.83
2022-10-11T14:26:22.668Z,10.10
2022-10-11T14:31:46.257Z,11.80
2022-10-11T14:37:09.250Z,9.93
2022-10-11T14:42:31.890Z,7.80
2022-10-11T14:47:54.080Z,8.48
2022-10-11T14:53:18.052Z,13.07
2022-10-11T14:58:40.234Z,12.20
2022-10-11T15:04:02.862Z,8.13
2022-10-11T15:09:26.150Z,15.80
2022-10-11T15:14:48.305Z,11.78
2022-10-11T15:20:10.640Z,8.75
2022-10-11T15:25:33.714Z,14.50
2022-10-11T15:30:56.383Z,12.07
2022-10-11T15:36:22.763Z,10.68
2022-10-11T15:41:45.056Z,7.53
2022-10-11T15:47:07.262Z,13.83
2022-10-11T15:52:29.954Z,10.65
2022-10-11T15:57:52.095Z,12.15
2022-10-11T16:03:17.087Z,7.90
2022-10-11T16:08:40.368Z,8.75
2022-10-11T16:14:02.904Z,9.70
2022-10-11T16:19:25.535Z,9.10
2022-10-11T16:24:47.978Z,8.48
2022-10-11T16:30:12.104Z,9.90
2022-10-11T16:35:34.996Z,16.42
2022-10-11T16:40:58.707Z,12.50
2022-10-11T16:46:20.858Z,13.55
2022-10-11T16:51:43.424Z,11.20
2022-10-11T16:57:07.215Z,10.82
2022-10-11T17:02:40.081Z,10.68
2022-10-11T17:08:03.168Z,13.43
2022-10-11T17:13:26.822Z,16.00
2022-10-11T17:18:50.923Z,15.85
2022-10-11T17:24:13.798Z,13.72
2022-10-11T17:29:36.139Z,18.65
2022-10-11T17:34:59.374Z,19.65
2022-10-11T17:40:22.491Z,19.00
2022-10-11T17:45:45.074Z,22.42
2022-10-11T17:51:09.642Z,19.90
2022-10-11T17:56:37.886Z,23.42
2022-10-11T18:01:59.735Z,20.40
2022-10-11T18:07:21.953Z,24.12
2022-10-11T18:12:44.107Z,24.50
2022-10-11T18:18:08.292Z,21.70
2022-10-11T18:23:31.280Z,36.90
2022-10-11T18:28:55.669Z,42.97
2022-10-11T18:34:19.833Z,34.03
2022-10-11T18:39:42.364Z,38.48
2022-10-11T18:45:04.612Z,38.30
2022-10-11T18:50:27.031Z,36.70
2022-10-11T18:55:49.718Z,39.05
2022-10-11T19:01:24.077Z,34.10
2022-10-11T19:06:54.066Z,27.63
2022-10-11T19:12:16.661Z,31.57
2022-10-11T19:17:38.854Z,36.03
2022-10-11T19:23:01.487Z,29.33
2022-10-11T19:28:23.670Z,37.88
2022-10-11T19:33:48.181Z,30.05
2022-10-11T19:39:11.255Z,29.37
2022-10-11T19:44:38.661Z,26.62
2022-10-11T19:49:59.388Z,32.60
2022-10-11T19:55:22.501Z,26.60
2022-10-11T20:00:44.728Z,30.17
2022-10-11T20:06:08.478Z,29.23
2022-10-11T20:11:32.076Z,39.13
2022-10-11T20:16:55.883Z,35.52
2022-10-11T20:22:22.350Z,39.23
2022-10-11T20:27:44.669Z,30.95
2022-10-11T20:33:06.797Z,33.40
2022-10-11T20:38:29.481Z,28.85
2022-10-11T20:43:55.219Z,36.67
2022-10-11T20:49:22.969Z,37.63
2022-10-11T20:54:45.103Z,26.70
2022-10-11T21:00:07.257Z,28.00
2022-10-11T21:05:29.560Z,31.70
2022-10-11T21:10:53.442Z,29.73
2022-10-11T21:16:19.829Z,33.67
2022-10-11T21:21:42.500Z,33.33
2022-10-11T21:27:05.064Z,30.45
2022-10-11T21:32:27.817Z,26.77
2022-10-11T21:37:49.968Z,28.42
2022-10-11T21:43:13.364Z,25.30
2022-10-11T21:48:36.333Z,27.73
2022-10-11T21:54:00.647Z,26.57
2022-10-11T21:59:23.526Z,29.00
2022-10-11T22:04:45.768Z,28.02
2022-10-11T22:10:07.919Z,27.20
2022-10-11T22:15:30.059Z,35.45
2022-10-11T22:20:52.521Z,31.68
2022-10-11T22:26:20.251Z,34.55
2022-10-11T22:31:42.933Z,32.40
2022-10-11T22:37:05.072Z,29.10
2022-10-11T22:42:27.808Z,25.25
2022-10-11T22:47:50.039Z,37.80
2022-10-11T22:53:12.851Z,28.10
2022-10-11T22:58:35.816Z,24.40
2022-10-11T23:04:01.108Z,26.02
2022-10-11T23:09:24.942Z,24.20
2022-10-11T23:14:47.100Z,27.27
2022-10-11T23:20:09.290Z,25.23
2022-10-11T23:25:31.530Z,28.20
2022-10-11T23:30:53.732Z,32.90
2022-10-11T23:36:23.197Z,30.32
2022-10-11T23:41:47.509Z,24.80
2022-10-11T23:47:10.582Z,30.65
2022-10-11T23:52:32.726Z,25.82
2022-10-11T23:57:55.275Z,31.70
